Chacara, Brazil
Current Conditions -  °F | °C
As of 5:00 AM on Thursday 23 Oct 2014 (Local Time) from SBGL Reporting Station
Broken Clouds Broken Clouds  
Wind Chill: 68°   Ceiling: 2000
Heat Index: 68°   Visibility: 6mi
Dew Point: 59°   Wind: 8mph
Humidity: 73%   Direction: 80°E
Pressure: 30.12"   Gusts: NA
Location:  21.67°S, 43.22°W
Report Text: SBGL 230700Z 08007KT 9999 BKN020 BKN050 20/15 Q1020
Loading
Personal Weather Stations






























Interactive Weather Map
Tropical Storm Tracking
New forecast layout! Learn more

10-Day Weather Forecast

Advertisements
Track Severe Weather on mobile